createdAt,value
2022-08-31T00:00:34.930Z,4.05
2022-08-31T00:05:38.943Z,4.45
2022-08-31T00:10:41.993Z,4.18
2022-08-31T00:15:46.776Z,3.90
2022-08-31T00:20:49.005Z,3.83
2022-08-31T00:25:50.921Z,3.92
2022-08-31T00:30:52.546Z,3.90
2022-08-31T00:35:54.783Z,3.88
2022-08-31T00:40:56.475Z,3.92
2022-08-31T00:45:58.276Z,4.05
2022-08-31T00:51:00.721Z,4.38
2022-08-31T00:56:02.779Z,4.90
2022-08-31T01:01:08.001Z,5.63
2022-08-31T01:06:09.728Z,4.80
2022-08-31T01:11:12.543Z,5.05
2022-08-31T01:16:19.808Z,4.07
2022-08-31T01:21:35.308Z,4.55
2022-08-31T01:26:38.669Z,4.18
2022-08-31T01:31:45.629Z,4.50
2022-08-31T01:36:48.169Z,4.22
2022-08-31T01:41:49.875Z,4.13
2022-08-31T01:46:54.426Z,4.38
2022-08-31T01:51:56.091Z,4.25
2022-08-31T01:56:57.790Z,4.72
2022-08-31T02:02:30.300Z,3.83
2022-08-31T02:07:32.031Z,4.47
2022-08-31T02:12:34.183Z,4.20
2022-08-31T02:17:35.906Z,4.18
2022-08-31T02:22:39.721Z,5.32
2022-08-31T02:27:41.434Z,4.55
2022-08-31T02:32:44.162Z,3.80
2022-08-31T02:37:45.881Z,4.25
2022-08-31T02:42:53.181Z,4.47
2022-08-31T02:47:57.784Z,3.85
2022-08-31T02:53:03.580Z,4.30
2022-08-31T02:58:05.522Z,4.22
2022-08-31T03:03:07.227Z,3.83
2022-08-31T03:08:08.942Z,4.35
2022-08-31T03:13:11.108Z,4.00
2022-08-31T03:18:12.833Z,3.85
2022-08-31T03:23:15.374Z,4.35
2022-08-31T03:28:17.721Z,4.30
2022-08-31T03:33:36.213Z,4.10
2022-08-31T03:38:37.851Z,4.30
2022-08-31T03:43:39.597Z,3.92
2022-08-31T03:48:41.395Z,3.72
2022-08-31T03:53:43.331Z,3.95
2022-08-31T03:58:51.633Z,3.50
2022-08-31T04:04:16.485Z,4.30
2022-08-31T04:09:24.004Z,4.25
2022-08-31T04:14:46.398Z,4.80
2022-08-31T04:20:07.079Z,4.10
2022-08-31T04:25:18.242Z,3.53
2022-08-31T04:30:24.001Z,4.68
2022-08-31T04:35:25.691Z,4.15
2022-08-31T04:40:27.921Z,4.55
2022-08-31T04:45:31.259Z,3.25
2022-08-31T04:50:32.948Z,3.95
2022-08-31T04:55:43.659Z,4.00
2022-08-31T05:00:47.495Z,3.80
2022-08-31T05:05:53.548Z,4.35
2022-08-31T05:10:55.416Z,3.90
2022-08-31T05:15:58.223Z,3.92
2022-08-31T05:21:11.517Z,4.38
2022-08-31T05:26:23.503Z,4.03
2022-08-31T05:31:30.727Z,4.00
2022-08-31T05:36:36.387Z,5.03
2022-08-31T05:41:43.375Z,4.30
2022-08-31T05:46:45.275Z,4.68
2022-08-31T05:52:00.445Z,4.70
2022-08-31T05:57:04.631Z,4.88
2022-08-31T06:02:11.265Z,4.82
2022-08-31T06:07:14.067Z,4.75
2022-08-31T06:12:20.585Z,3.90
2022-08-31T06:17:24.295Z,4.00
2022-08-31T06:22:26.273Z,4.50
2022-08-31T06:27:30.289Z,4.30
2022-08-31T06:32:32.663Z,3.78
2022-08-31T06:37:38.052Z,3.90
2022-08-31T06:42:58.162Z,4.22
2022-08-31T06:48:27.143Z,4.28
2022-08-31T06:53:31.379Z,3.75
2022-08-31T06:59:03.701Z,3.83
2022-08-31T07:04:39.159Z,4.30
2022-08-31T07:09:41.703Z,4.65
2022-08-31T07:14:54.444Z,4.30
2022-08-31T07:19:57.405Z,3.50
2022-08-31T07:24:59.260Z,3.90
2022-08-31T07:30:01.770Z,4.22
2022-08-31T07:35:09.218Z,3.80
2022-08-31T07:40:33.048Z,2.83
2022-08-31T07:45:37.800Z,2.97
2022-08-31T07:50:44.884Z,3.38
2022-08-31T07:56:00.447Z,3.17
2022-08-31T08:01:15.063Z,3.28
2022-08-31T08:06:17.613Z,3.30
2022-08-31T08:11:52.611Z,2.90
2022-08-31T08:17:13.080Z,2.58
2022-08-31T08:22:41.586Z,2.60
2022-08-31T08:28:05.819Z,2.28
2022-08-31T08:33:20.258Z,2.83
2022-08-31T08:38:23.170Z,2.55
2022-08-31T08:43:33.546Z,2.22
2022-08-31T08:48:38.444Z,2.17
2022-08-31T08:53:42.697Z,1.90
2022-08-31T08:59:00.310Z,2.00
2022-08-31T09:04:17.205Z,2.10
2022-08-31T09:09:47.130Z,1.50
2022-08-31T09:15:03.921Z,1.55
2022-08-31T09:20:07.534Z,1.40
2022-08-31T09:25:09.973Z,1.63
2022-08-31T09:30:56.216Z,1.45
2022-08-31T09:36:16.761Z,1.50
2022-08-31T09:41:33.375Z,1.10
2022-08-31T09:46:35.174Z,1.38
2022-08-31T09:51:38.605Z,1.40
2022-08-31T09:56:55.534Z,1.20
2022-08-31T10:02:00.253Z,1.33
2022-08-31T10:07:28.717Z,1.33
2022-08-31T10:12:55.195Z,1.00
2022-08-31T10:18:34.722Z,1.23
2022-08-31T10:23:56.318Z,1.50
2022-08-31T10:29:06.028Z,1.48
2022-08-31T10:34:32.325Z,1.17
2022-08-31T10:39:47.161Z,1.00
2022-08-31T10:45:00.736Z,1.17
2022-08-31T10:50:05.304Z,0.90
2022-08-31T10:55:29.098Z,0.90
2022-08-31T11:00:53.052Z,0.85
2022-08-31T11:06:02.937Z,1.10
2022-08-31T11:11:09.663Z,0.93
2022-08-31T11:16:29.382Z,0.82
2022-08-31T11:21:50.976Z,1.10
2022-08-31T11:27:33.507Z,0.77
2022-08-31T11:32:42.045Z,0.77
2022-08-31T11:37:53.151Z,0.68
2022-08-31T11:42:57.778Z,0.52
2022-08-31T11:48:00.590Z,0.50
2022-08-31T11:53:31.791Z,0.68
2022-08-31T11:58:38.388Z,0.80
2022-08-31T12:03:51.465Z,0.55
2022-08-31T12:09:16.413Z,0.75
2022-08-31T12:14:33.275Z,0.70
2022-08-31T12:20:12.323Z,0.88
2022-08-31T12:25:39.217Z,0.93
2022-08-31T12:30:54.743Z,0.90
2022-08-31T12:36:13.405Z,0.90
2022-08-31T12:41:15.177Z,0.80
2022-08-31T12:46:37.964Z,0.82
2022-08-31T12:51:49.819Z,0.73
2022-08-31T12:57:05.649Z,0.75
2022-08-31T13:02:12.057Z,0.68
2022-08-31T13:07:21.626Z,0.65
2022-08-31T13:12:24.046Z,0.63
2022-08-31T13:17:26.059Z,0.65
2022-08-31T13:22:32.176Z,0.55
2022-08-31T13:27:38.796Z,0.70
2022-08-31T13:32:44.882Z,0.50
2022-08-31T13:38:05.063Z,0.82
2022-08-31T13:43:09.909Z,0.80
2022-08-31T13:48:19.256Z,0.73
2022-08-31T13:53:40.278Z,0.90
2022-08-31T13:58:42.155Z,0.98
2022-08-31T14:03:59.503Z,0.88
2022-08-31T14:09:16.022Z,0.80
2022-08-31T14:14:24.159Z,0.90
2022-08-31T14:19:32.200Z,0.90
2022-08-31T14:24:33.840Z,0.70
2022-08-31T14:29:37.200Z,0.80
2022-08-31T14:34:47.191Z,0.80
2022-08-31T14:39:55.247Z,0.98
2022-08-31T14:45:05.219Z,0.90
2022-08-31T14:50:07.062Z,0.75
2022-08-31T14:55:11.273Z,0.90
2022-08-31T15:00:21.890Z,1.05
2022-08-31T15:05:24.992Z,0.77
2022-08-31T15:10:27.871Z,0.50
2022-08-31T15:15:29.753Z,0.80
2022-08-31T15:20:39.940Z,0.85
2022-08-31T15:25:41.596Z,0.70
2022-08-31T15:30:43.240Z,0.80
2022-08-31T15:35:44.849Z,0.90
2022-08-31T15:40:46.675Z,0.80
2022-08-31T15:45:48.320Z,0.90
2022-08-31T15:50:58.920Z,0.90
2022-08-31T15:56:05.771Z,0.90
2022-08-31T16:01:14.035Z,0.77
2022-08-31T16:06:15.830Z,0.77
2022-08-31T16:11:17.507Z,0.70
2022-08-31T16:16:20.317Z,1.02
2022-08-31T16:21:22.055Z,0.90
2022-08-31T16:26:23.678Z,0.70
2022-08-31T16:31:27.208Z,0.77
2022-08-31T16:36:29.264Z,0.82
2022-08-31T16:41:32.331Z,0.63
2022-08-31T16:46:41.089Z,0.70
2022-08-31T16:51:48.457Z,0.90
2022-08-31T16:56:51.302Z,0.90
2022-08-31T17:01:54.887Z,0.90
2022-08-31T17:06:57.301Z,0.80
2022-08-31T17:12:01.850Z,0.73
2022-08-31T17:17:06.619Z,0.70
2022-08-31T17:22:11.170Z,0.80
2022-08-31T17:27:15.569Z,0.93
2022-08-31T17:32:19.912Z,0.98
2022-08-31T17:37:32.512Z,0.85
2022-08-31T17:42:35.284Z,1.00
2022-08-31T17:47:36.944Z,1.05
2022-08-31T17:52:38.530Z,0.85
2022-08-31T17:57:42.134Z,0.70
2022-08-31T18:02:44.615Z,0.90
2022-08-31T18:07:50.058Z,1.52
2022-08-31T18:12:51.851Z,1.15
2022-08-31T18:17:55.506Z,0.90
2022-08-31T18:22:57.620Z,1.20
2022-08-31T18:28:03.447Z,1.00
2022-08-31T18:33:06.132Z,0.98
2022-08-31T18:38:10.785Z,1.05
2022-08-31T18:43:31.275Z,1.00
2022-08-31T18:48:33.712Z,1.17
2022-08-31T18:53:36.241Z,1.20
2022-08-31T18:58:39.189Z,1.20
2022-08-31T19:03:41.682Z,1.40
2022-08-31T19:08:43.974Z,1.33
2022-08-31T19:13:50.680Z,1.23
2022-08-31T19:18:57.023Z,1.73
2022-08-31T19:24:01.646Z,1.50
2022-08-31T19:29:08.863Z,1.20
2022-08-31T19:34:12.632Z,1.30
2022-08-31T19:39:20.489Z,1.50
2022-08-31T19:44:23.188Z,1.73
2022-08-31T19:49:25.761Z,1.73
2022-08-31T19:54:31.335Z,1.90
2022-08-31T19:59:33.335Z,1.50
2022-08-31T20:04:36.114Z,1.50
2022-08-31T20:09:38.062Z,1.63
2022-08-31T20:14:39.749Z,1.60
2022-08-31T20:19:42.738Z,2.05
2022-08-31T20:24:45.192Z,2.10
2022-08-31T20:29:48.124Z,2.05
2022-08-31T20:34:51.238Z,2.10
2022-08-31T20:39:53.350Z,1.60
2022-08-31T20:44:55.979Z,1.90
2022-08-31T20:50:00.089Z,1.70
2022-08-31T20:55:03.807Z,2.00
2022-08-31T21:00:07.419Z,1.83
2022-08-31T21:05:37.451Z,1.65
2022-08-31T21:10:37.611Z,1.92
2022-08-31T21:15:42.729Z,1.67
2022-08-31T21:20:46.271Z,1.77
2022-08-31T21:25:48.131Z,1.55
2022-08-31T21:30:52.818Z,1.70
2022-08-31T21:36:02.667Z,1.80
2022-08-31T21:41:06.146Z,2.00
2022-08-31T21:46:13.801Z,1.80
2022-08-31T21:51:24.798Z,2.05
2022-08-31T21:56:28.826Z,1.73
2022-08-31T22:01:33.658Z,2.00
2022-08-31T22:06:37.108Z,1.83
2022-08-31T22:11:43.922Z,1.50
2022-08-31T22:16:48.110Z,1.60
2022-08-31T22:21:55.692Z,1.52
2022-08-31T22:26:59.690Z,1.73
2022-08-31T22:32:12.062Z,1.60
2022-08-31T22:37:14.217Z,1.95
2022-08-31T22:42:16.349Z,1.50
2022-08-31T22:47:18.046Z,1.70
2022-08-31T22:52:19.691Z,1.50
2022-08-31T22:57:21.324Z,1.80
2022-08-31T23:02:26.158Z,2.15
2022-08-31T23:07:28.471Z,1.90
2022-08-31T23:12:30.139Z,1.85
2022-08-31T23:17:32.131Z,1.63
2022-08-31T23:22:36.995Z,1.42
2022-08-31T23:27:38.618Z,1.80
2022-08-31T23:32:41.605Z,1.90
2022-08-31T23:37:43.232Z,1.90
2022-08-31T23:42:44.832Z,1.80
2022-08-31T23:47:46.567Z,1.88
2022-08-31T23:52:48.711Z,1.63
2022-08-31T23:57:50.506Z,1.50
